createdAt,value
2022-12-18T00:01:28.630Z,102215.41
2022-12-18T00:03:58.120Z,102225.47
2022-12-18T00:06:27.618Z,102215.28
2022-12-18T00:08:57.763Z,102217.09
2022-12-18T00:11:29.246Z,102217.09
2022-12-18T00:13:59.269Z,102217.84
2022-12-18T00:16:28.187Z,102222.16
2022-12-18T00:18:58.774Z,102223.72
2022-12-18T00:21:26.541Z,102225.38
2022-12-18T00:23:54.638Z,102233.78
2022-12-18T00:26:25.147Z,102230.69
2022-12-18T00:29:01.100Z,102231.38
2022-12-18T00:31:31.911Z,102221.06
2022-12-18T00:34:01.284Z,102231.13
2022-12-18T00:36:31.131Z,102231.13
2022-12-18T00:39:00.302Z,102240.53
2022-12-18T00:41:46.847Z,102239.63
2022-12-18T00:44:18.248Z,102243.88
2022-12-18T00:46:48.131Z,102254.13
2022-12-18T00:49:16.165Z,102249.59
2022-12-18T00:51:43.993Z,102232.66
2022-12-18T00:54:12.886Z,102234.09
2022-12-18T00:56:48.255Z,102239.31
2022-12-18T00:59:18.743Z,102227.25
2022-12-18T01:01:47.048Z,102223.81
2022-12-18T01:04:15.528Z,102220.28
2022-12-18T01:06:46.698Z,102226.91
2022-12-18T01:09:14.470Z,102221.72
2022-12-18T01:11:42.382Z,102221.59
2022-12-18T01:14:11.919Z,102225.78
2022-12-18T01:16:41.117Z,102214.25
2022-12-18T01:19:09.004Z,102213.19
2022-12-18T01:21:36.787Z,102227.56
2022-12-18T01:24:06.223Z,102214.59
2022-12-18T01:26:34.985Z,102222.91
2022-12-18T01:29:02.692Z,102228.00
2022-12-18T01:31:33.318Z,102215.91
2022-12-18T01:34:06.026Z,102233.63
2022-12-18T01:36:37.522Z,102239.59
2022-12-18T01:39:07.414Z,102231.28
2022-12-18T01:41:50.726Z,102229.66
2022-12-18T01:45:04.255Z,102222.41
2022-12-18T01:47:40.047Z,102218.22
2022-12-18T01:50:13.524Z,102217.22
2022-12-18T01:52:44.686Z,102209.91
2022-12-18T01:55:14.410Z,102226.81
2022-12-18T01:57:43.309Z,102220.75
2022-12-18T02:00:15.864Z,102226.72
2022-12-18T02:02:46.403Z,102218.84
2022-12-18T02:05:18.575Z,102213.63
2022-12-18T02:07:58.242Z,102218.50
2022-12-18T02:10:32.010Z,102218.72
2022-12-18T02:13:13.655Z,102222.06
2022-12-18T02:15:45.942Z,102228.00
2022-12-18T02:18:20.686Z,102230.56
2022-12-18T02:20:56.202Z,102225.38
2022-12-18T02:23:41.932Z,102212.00
2022-12-18T02:26:18.618Z,102216.97
2022-12-18T02:28:50.144Z,102218.59
2022-12-18T02:31:23.283Z,102222.13
2022-12-18T02:33:52.237Z,102217.81
2022-12-18T02:36:23.843Z,102219.22
2022-12-18T02:38:53.865Z,102221.00
2022-12-18T02:41:24.711Z,102223.44
2022-12-18T02:43:58.037Z,102212.72
2022-12-18T02:46:37.020Z,102207.78
2022-12-18T02:49:27.983Z,102215.63
2022-12-18T02:52:03.826Z,102211.66
2022-12-18T02:54:54.412Z,102210.34
2022-12-18T02:57:30.867Z,102209.00
2022-12-18T03:00:07.185Z,102201.50
2022-12-18T03:02:40.051Z,102200.53
2022-12-18T03:05:16.012Z,102198.66
2022-12-18T03:07:49.319Z,102208.28
2022-12-18T03:10:25.790Z,102211.72
2022-12-18T03:12:59.853Z,102208.94
2022-12-18T03:15:31.671Z,102207.16
2022-12-18T03:18:12.864Z,102214.69
2022-12-18T03:20:44.277Z,102210.03
2022-12-18T03:23:17.740Z,102204.16
2022-12-18T03:25:52.383Z,102202.94
2022-12-18T03:28:24.694Z,102187.22
2022-12-18T03:31:03.414Z,102188.66
2022-12-18T03:33:36.914Z,102184.78
2022-12-18T03:36:05.612Z,102189.53
2022-12-18T03:38:34.636Z,102183.56
2022-12-18T03:41:09.150Z,102177.34
2022-12-18T03:43:53.080Z,102181.78
2022-12-18T03:46:30.309Z,102177.34
2022-12-18T03:49:06.338Z,102171.16
2022-12-18T03:51:39.992Z,102173.59
2022-12-18T03:54:10.723Z,102185.19
2022-12-18T03:56:45.685Z,102184.28
2022-12-18T03:59:17.436Z,102174.78
2022-12-18T04:01:49.561Z,102177.09
2022-12-18T04:04:20.748Z,102175.97
2022-12-18T04:06:51.591Z,102180.06
2022-12-18T04:09:21.218Z,102179.19
2022-12-18T04:11:50.478Z,102182.63
2022-12-18T04:14:19.578Z,102175.50
2022-12-18T04:16:51.683Z,102159.84
2022-12-18T04:19:24.078Z,102167.38
2022-12-18T04:21:53.743Z,102164.16
2022-12-18T04:24:21.894Z,102164.25
2022-12-18T04:27:01.326Z,102161.50
2022-12-18T04:29:35.733Z,102176.19
2022-12-18T04:32:03.510Z,102180.00
2022-12-18T04:34:33.037Z,102171.63
2022-12-18T04:37:01.206Z,102177.47
2022-12-18T04:39:29.226Z,102167.78
2022-12-18T04:42:05.733Z,102163.47
2022-12-18T04:44:35.186Z,102169.22
2022-12-18T04:47:03.030Z,102181.25
2022-12-18T04:49:30.740Z,102173.97
2022-12-18T04:51:58.537Z,102175.09
2022-12-18T04:54:26.468Z,102171.78
2022-12-18T04:56:54.256Z,102169.56
2022-12-18T04:59:22.919Z,102169.03
2022-12-18T05:01:52.939Z,102167.25
2022-12-18T05:04:21.753Z,102162.31
2022-12-18T05:06:49.466Z,102161.53
2022-12-18T05:09:17.195Z,102152.66
2022-12-18T05:11:45.307Z,102160.53
2022-12-18T05:14:14.204Z,102162.31
2022-12-18T05:16:41.961Z,102156.47
2022-12-18T05:19:11.479Z,102151.59
2022-12-18T05:21:39.520Z,102133.69
2022-12-18T05:24:07.646Z,102143.09
2022-12-18T05:26:35.352Z,102144.88
2022-12-18T05:29:03.063Z,102156.69
2022-12-18T05:31:35.924Z,102142.84
2022-12-18T05:34:06.841Z,102152.50
2022-12-18T05:36:35.957Z,102154.16
2022-12-18T05:39:03.729Z,102149.06
2022-12-18T05:41:32.284Z,102140.66
2022-12-18T05:44:00.261Z,102153.34
2022-12-18T05:46:28.839Z,102147.50
2022-12-18T05:48:56.985Z,102160.97
2022-12-18T05:51:24.708Z,102162.66
2022-12-18T05:53:53.860Z,102165.06
2022-12-18T05:56:23.676Z,102169.63
2022-12-18T05:58:53.760Z,102173.16
2022-12-18T06:01:24.023Z,102164.09
2022-12-18T06:03:51.853Z,102171.97
2022-12-18T06:06:23.169Z,102174.59
2022-12-18T06:08:52.929Z,102185.81
2022-12-18T06:11:22.927Z,102199.63
2022-12-18T06:13:56.324Z,102194.53
2022-12-18T06:16:26.465Z,102199.97
2022-12-18T06:18:54.291Z,102195.75
2022-12-18T06:21:22.639Z,102198.22
2022-12-18T06:23:50.416Z,102204.94
2022-12-18T06:26:24.641Z,102203.81
2022-12-18T06:28:55.452Z,102215.78
2022-12-18T06:31:23.815Z,102217.44
2022-12-18T06:33:51.698Z,102213.34
2022-12-18T06:36:20.589Z,102212.34
2022-12-18T06:38:48.507Z,102207.50
2022-12-18T06:41:18.269Z,102209.69
2022-12-18T06:43:47.627Z,102201.81
2022-12-18T06:46:15.559Z,102198.38
2022-12-18T06:48:43.623Z,102194.50
2022-12-18T06:51:11.340Z,102197.47
2022-12-18T06:53:40.009Z,102205.53
2022-12-18T06:56:10.892Z,102211.38
2022-12-18T06:58:39.179Z,102214.34
2022-12-18T07:01:10.611Z,102202.72
2022-12-18T07:03:39.656Z,102206.69
2022-12-18T07:06:08.216Z,102193.50
2022-12-18T07:08:36.473Z,102205.97
2022-12-18T07:11:06.502Z,102207.72
2022-12-18T07:13:34.222Z,102193.69
2022-12-18T07:16:15.955Z,102199.53
2022-12-18T07:18:45.420Z,102190.66
2022-12-18T07:21:14.925Z,102208.84
2022-12-18T07:23:42.921Z,102208.44
2022-12-18T07:26:13.118Z,102211.38
2022-12-18T07:28:42.527Z,102212.41
2022-12-18T07:31:13.689Z,102218.25
2022-12-18T07:33:41.970Z,102213.59
2022-12-18T07:36:12.528Z,102210.81
2022-12-18T07:38:41.031Z,102189.00
2022-12-18T07:41:11.734Z,102196.28
2022-12-18T07:43:40.731Z,102182.78
2022-12-18T07:46:13.187Z,102183.22
2022-12-18T07:48:41.615Z,102173.84
2022-12-18T07:51:09.814Z,102176.97
2022-12-18T07:53:38.948Z,102177.53
2022-12-18T07:58:57.233Z,102176.91
2022-12-18T08:01:26.817Z,102172.78
2022-12-18T08:03:54.813Z,102177.34
2022-12-18T08:06:23.788Z,102168.06
2022-12-18T08:08:53.757Z,102159.97
2022-12-18T08:11:21.997Z,102153.22
2022-12-18T08:13:49.808Z,102152.78
2022-12-18T08:16:18.005Z,102140.94
2022-12-18T08:18:47.328Z,102140.59
2022-12-18T08:21:17.761Z,102157.88
2022-12-18T08:23:46.267Z,102144.59
2022-12-18T08:26:14.724Z,102133.28
2022-12-18T08:28:43.280Z,102137.38
2022-12-18T08:31:11.723Z,102139.66
2022-12-18T08:33:41.047Z,102129.94
2022-12-18T08:36:11.872Z,102118.38
2022-12-18T08:38:39.765Z,102128.09
2022-12-18T08:41:09.343Z,102117.56
2022-12-18T08:43:54.858Z,102134.84
2022-12-18T08:46:23.131Z,102125.06
2022-12-18T08:48:53.079Z,102134.38
2022-12-18T08:51:22.575Z,102129.00
2022-12-18T08:53:50.328Z,102130.63
2022-12-18T08:56:18.690Z,102121.53
2022-12-18T08:58:46.631Z,102118.59
2022-12-18T09:01:15.172Z,102122.56
2022-12-18T09:03:43.411Z,102119.97
2022-12-18T09:06:16.621Z,102112.72
2022-12-18T09:08:46.458Z,102121.19
2022-12-18T09:11:16.734Z,102116.97
2022-12-18T09:13:44.418Z,102112.47
2022-12-18T09:16:12.108Z,102119.63
2022-12-18T09:18:40.071Z,102116.50
2022-12-18T09:21:12.731Z,102124.06
2022-12-18T09:23:40.809Z,102118.38
2022-12-18T09:26:09.967Z,102121.91
2022-12-18T09:28:38.347Z,102118.19
2022-12-18T09:31:09.420Z,102111.31
2022-12-18T09:33:37.688Z,102104.25
2022-12-18T09:36:08.192Z,102109.94
2022-12-18T09:38:36.866Z,102101.78
2022-12-18T09:41:09.000Z,102098.84
2022-12-18T09:43:45.244Z,102104.00
2022-12-18T09:46:19.055Z,102099.97
2022-12-18T09:48:51.359Z,102086.09
2022-12-18T09:51:25.441Z,102073.91
2022-12-18T09:53:59.465Z,102076.31
2022-12-18T09:56:31.019Z,102090.63
2022-12-18T09:59:02.061Z,102079.88
2022-12-18T10:01:41.533Z,102074.63
2022-12-18T10:04:11.865Z,102065.75
2022-12-18T10:06:48.133Z,102058.59
2022-12-18T10:09:27.571Z,102060.63
2022-12-18T10:12:05.446Z,102061.78
2022-12-18T10:14:45.260Z,102054.03
2022-12-18T10:17:25.221Z,102062.41
2022-12-18T10:19:58.277Z,102063.31
2022-12-18T10:22:42.650Z,102051.91
2022-12-18T10:25:21.336Z,102063.81
2022-12-18T10:27:50.416Z,102066.72
2022-12-18T10:30:22.243Z,102052.25
2022-12-18T10:32:50.141Z,102060.88
2022-12-18T10:35:21.804Z,102041.56
2022-12-18T10:38:03.872Z,102043.13
2022-12-18T10:40:32.147Z,102048.41
2022-12-18T10:43:12.641Z,102047.72
2022-12-18T10:45:41.848Z,102044.13
2022-12-18T10:48:21.203Z,102029.88
2022-12-18T10:53:43.942Z,102032.56
2022-12-18T10:56:12.723Z,102049.03
2022-12-18T10:58:41.465Z,102046.91
2022-12-18T11:01:13.693Z,102038.63
2022-12-18T11:03:43.519Z,102061.53
2022-12-18T11:06:13.448Z,102022.94
2022-12-18T11:08:43.119Z,102017.09
2022-12-18T11:11:21.637Z,102010.66
2022-12-18T11:14:00.530Z,102012.22
2022-12-18T11:16:31.681Z,102010.38
2022-12-18T11:19:17.134Z,102020.78
2022-12-18T11:21:45.043Z,102004.28
2022-12-18T11:24:22.289Z,102026.78
2022-12-18T11:26:53.750Z,102038.84
2022-12-18T11:29:29.282Z,102014.28
2022-12-18T11:32:25.771Z,102029.50
2022-12-18T11:35:00.024Z,102009.41
2022-12-18T11:37:29.670Z,102008.91
2022-12-18T11:40:02.019Z,102008.91
2022-12-18T11:42:37.847Z,102015.84
2022-12-18T11:45:25.423Z,101994.97
2022-12-18T11:48:00.774Z,101998.94
2022-12-18T11:50:33.476Z,101993.03
2022-12-18T11:53:05.653Z,101975.81
2022-12-18T11:55:41.849Z,102005.66
2022-12-18T11:58:18.988Z,101986.13
2022-12-18T12:00:51.491Z,101997.66
2022-12-18T12:03:42.096Z,101987.34
2022-12-18T12:06:16.170Z,101980.34
2022-12-18T12:09:03.249Z,101977.94
2022-12-18T12:11:44.194Z,101995.88
2022-12-18T12:14:25.405Z,101965.47
2022-12-18T12:16:59.391Z,101961.81
2022-12-18T12:19:40.280Z,101980.44
2022-12-18T12:22:15.875Z,101966.50
2022-12-18T12:25:01.478Z,101972.03
2022-12-18T12:27:34.678Z,101973.88
2022-12-18T12:30:08.525Z,101954.22
2022-12-18T12:32:52.763Z,101964.28
2022-12-18T12:35:32.386Z,101959.25
2022-12-18T12:38:10.165Z,101945.81
2022-12-18T12:40:54.021Z,101952.44
2022-12-18T12:43:32.138Z,101941.03
2022-12-18T12:46:08.393Z,101947.88
2022-12-18T12:48:46.129Z,101936.78
2022-12-18T12:51:19.764Z,101936.78
2022-12-18T12:53:49.714Z,101927.41
2022-12-18T12:56:19.871Z,101932.78
2022-12-18T12:58:57.673Z,101929.94
2022-12-18T13:01:35.184Z,101916.34
2022-12-18T13:04:14.784Z,101924.84
2022-12-18T13:06:52.299Z,101926.03
2022-12-18T13:09:20.043Z,101918.47
2022-12-18T13:12:07.596Z,101922.06
2022-12-18T13:14:37.738Z,101921.25
2022-12-18T13:17:31.771Z,101923.19
2022-12-18T13:20:12.002Z,101913.72
2022-12-18T13:22:44.942Z,101920.03
2022-12-18T13:25:37.632Z,101919.25
2022-12-18T13:28:10.338Z,101925.28
2022-12-18T13:31:02.808Z,101908.22
2022-12-18T13:36:39.888Z,101917.00
2022-12-18T13:39:34.340Z,101910.38
2022-12-18T13:42:58.772Z,101921.97
2022-12-18T13:45:43.357Z,101914.63
2022-12-18T13:48:21.187Z,101912.69
2022-12-18T13:50:55.817Z,101901.31
2022-12-18T13:53:28.439Z,101896.09
2022-12-18T13:55:58.608Z,101913.03
2022-12-18T13:58:26.368Z,101911.31
2022-12-18T14:00:54.186Z,101905.50
2022-12-18T14:03:27.061Z,101915.03
2022-12-18T14:06:05.577Z,101911.66
2022-12-18T14:08:41.338Z,101902.94
2022-12-18T14:11:22.364Z,101907.66
2022-12-18T14:13:51.186Z,101900.84
2022-12-18T14:16:19.731Z,101889.50
2022-12-18T14:18:51.160Z,101897.06
2022-12-18T14:21:23.118Z,101897.47
2022-12-18T14:23:51.269Z,101887.25
2022-12-18T14:26:29.356Z,101888.75
2022-12-18T14:28:57.537Z,101887.53
2022-12-18T14:31:27.326Z,101877.75
2022-12-18T14:33:55.525Z,101870.25
2022-12-18T14:36:24.993Z,101866.78
2022-12-18T14:38:54.610Z,101859.31
2022-12-18T14:41:24.835Z,101859.69
2022-12-18T14:43:54.711Z,101874.97
2022-12-18T14:46:34.633Z,101854.41
2022-12-18T14:49:05.556Z,101850.00
2022-12-18T14:51:35.293Z,101859.28
2022-12-18T14:54:05.280Z,101862.63
2022-12-18T14:56:37.191Z,101855.50
2022-12-18T14:59:06.868Z,101847.75
2022-12-18T15:01:38.919Z,101863.97
2022-12-18T15:04:25.046Z,101861.97
2022-12-18T15:07:05.852Z,101860.16
2022-12-18T15:09:33.734Z,101872.94
2022-12-18T15:12:03.574Z,101850.63
2022-12-18T15:14:37.189Z,101856.44
2022-12-18T15:17:08.214Z,101852.03
2022-12-18T15:19:40.839Z,101854.44
2022-12-18T15:22:21.437Z,101850.25
2022-12-18T15:24:50.769Z,101839.00
2022-12-18T15:27:32.051Z,101839.88
2022-12-18T15:30:19.896Z,101849.09
2022-12-18T15:32:48.574Z,101849.94
2022-12-18T15:35:19.431Z,101846.41
2022-12-18T15:37:47.662Z,101854.19
2022-12-18T15:40:16.231Z,101857.38
2022-12-18T15:43:05.071Z,101866.81
2022-12-18T15:45:32.910Z,101872.28
2022-12-18T15:48:08.505Z,101848.19
2022-12-18T15:50:36.596Z,101849.75
2022-12-18T15:53:04.596Z,101848.25
2022-12-18T15:55:59.313Z,101833.63
2022-12-18T15:58:29.997Z,101845.69
2022-12-18T16:01:00.499Z,101851.81
2022-12-18T16:03:28.447Z,101856.03
2022-12-18T16:05:56.536Z,101861.31
2022-12-18T16:08:25.618Z,101843.16
2022-12-18T16:10:53.333Z,101852.50
2022-12-18T16:13:22.303Z,101843.97
2022-12-18T16:15:51.784Z,101851.72
2022-12-18T16:18:19.572Z,101837.06
2022-12-18T16:20:47.386Z,101847.38
2022-12-18T16:23:15.205Z,101844.91
2022-12-18T16:25:42.937Z,101844.13
2022-12-18T16:28:10.972Z,101829.56
2022-12-18T16:30:38.905Z,101808.13
2022-12-18T16:33:08.028Z,101831.97
2022-12-18T16:35:37.986Z,101829.47
2022-12-18T16:38:05.775Z,101834.59
2022-12-18T16:40:34.236Z,101831.34
2022-12-18T16:43:01.885Z,101827.06
2022-12-18T16:45:33.947Z,101821.88
2022-12-18T16:48:01.914Z,101812.53
2022-12-18T16:50:32.203Z,101811.03
2022-12-18T16:53:00.470Z,101827.97
2022-12-18T16:55:28.756Z,101817.72
2022-12-18T16:57:56.493Z,101823.88
2022-12-18T17:00:24.190Z,101814.53
2022-12-18T17:02:52.615Z,101804.19
2022-12-18T17:05:21.495Z,101825.41
2022-12-18T17:07:50.958Z,101820.28
2022-12-18T17:10:18.889Z,101822.84
2022-12-18T17:12:47.253Z,101830.69
2022-12-18T17:15:15.253Z,101827.97
2022-12-18T17:17:44.625Z,101829.63
2022-12-18T17:20:13.025Z,101838.03
2022-12-18T17:22:41.207Z,101818.22
2022-12-18T17:25:10.958Z,101822.59
2022-12-18T17:27:39.071Z,101824.28
2022-12-18T17:30:09.890Z,101830.13
2022-12-18T17:32:38.658Z,101825.06
2022-12-18T17:35:08.065Z,101826.56
2022-12-18T17:37:36.840Z,101809.56
2022-12-18T17:40:11.396Z,101813.72
2022-12-18T17:42:39.555Z,101805.94
2022-12-18T17:45:08.440Z,101817.00
2022-12-18T17:47:36.754Z,101809.22
2022-12-18T17:50:05.401Z,101804.19
2022-12-18T17:52:36.564Z,101820.41
2022-12-18T17:55:05.835Z,101822.97
2022-12-18T17:57:35.072Z,101807.63
2022-12-18T18:00:02.912Z,101825.63
2022-12-18T18:02:43.823Z,101803.38
2022-12-18T18:05:13.420Z,101809.47
2022-12-18T18:07:43.055Z,101813.72
2022-12-18T18:10:11.351Z,101796.59
2022-12-18T18:12:57.698Z,101811.94
2022-12-18T18:15:25.456Z,101811.16
2022-12-18T18:17:53.234Z,101805.25
2022-12-18T18:20:22.911Z,101795.03
2022-12-18T18:22:50.818Z,101789.09
2022-12-18T18:25:18.718Z,101790.91
2022-12-18T18:27:48.647Z,101791.81
2022-12-18T18:30:16.733Z,101806.44
2022-12-18T18:32:44.483Z,101792.97
2022-12-18T18:35:30.691Z,101786.13
2022-12-18T18:38:00.309Z,101790.47
2022-12-18T18:40:28.749Z,101786.13
2022-12-18T18:42:58.390Z,101782.94
2022-12-18T18:45:26.189Z,101795.75
2022-12-18T18:47:53.992Z,101804.38
2022-12-18T18:50:21.782Z,101804.38
2022-12-18T18:52:49.664Z,101807.91
2022-12-18T18:55:25.337Z,101797.75
2022-12-18T18:57:53.630Z,101791.03
2022-12-18T19:00:22.793Z,101795.28
2022-12-18T19:02:52.156Z,101803.84
2022-12-18T19:05:22.893Z,101799.50
2022-12-18T19:07:50.560Z,101806.31
2022-12-18T19:10:18.336Z,101805.50
2022-12-18T19:13:03.547Z,101786.81
2022-12-18T19:15:33.031Z,101797.13
2022-12-18T19:18:00.935Z,101786.00
2022-12-18T19:20:28.826Z,101789.38
2022-12-18T19:22:57.116Z,101784.41
2022-12-18T19:25:40.012Z,101783.53
2022-12-18T19:28:16.021Z,101765.59
2022-12-18T19:30:53.562Z,101773.28
2022-12-18T19:33:42.305Z,101781.03
2022-12-18T19:36:12.865Z,101786.25
2022-12-18T19:38:41.544Z,101794.97
2022-12-18T19:41:14.212Z,101794.97
2022-12-18T19:43:42.803Z,101787.34
2022-12-18T19:46:15.440Z,101790.69
2022-12-18T19:48:44.335Z,101795.97
2022-12-18T19:51:15.797Z,101783.28
2022-12-18T19:53:43.948Z,101799.69
2022-12-18T19:56:14.211Z,101799.06
2022-12-18T19:58:42.440Z,101800.94
2022-12-18T20:01:16.673Z,101798.56
2022-12-18T20:03:52.384Z,101799.38
2022-12-18T20:06:26.374Z,101779.84
2022-12-18T20:08:57.672Z,101784.22
2022-12-18T20:11:28.140Z,101782.41
2022-12-18T20:13:55.869Z,101784.16
2022-12-18T20:16:25.135Z,101790.25
2022-12-18T20:18:56.393Z,101787.69
2022-12-18T20:21:25.175Z,101791.28
2022-12-18T20:23:54.750Z,101788.72
2022-12-18T20:26:22.719Z,101798.00
2022-12-18T20:28:50.490Z,101788.72
2022-12-18T20:31:18.223Z,101779.09
2022-12-18T20:33:48.679Z,101785.84
2022-12-18T20:36:28.196Z,101779.75
2022-12-18T20:38:59.274Z,101779.75
2022-12-18T20:41:38.549Z,101790.06
2022-12-18T20:44:13.728Z,101792.72
2022-12-18T20:46:50.411Z,101790.25
2022-12-18T20:49:19.615Z,101781.59
2022-12-18T20:51:47.371Z,101789.50
2022-12-18T20:54:15.066Z,101780.00
2022-12-18T20:56:42.764Z,101792.06
2022-12-18T20:59:11.329Z,101800.88
2022-12-18T21:01:40.112Z,101795.66
2022-12-18T21:04:15.166Z,101798.38
2022-12-18T21:06:50.921Z,101788.31
2022-12-18T21:09:19.436Z,101787.56
2022-12-18T21:12:05.730Z,101789.44
2022-12-18T21:14:33.626Z,101790.38
2022-12-18T21:17:01.921Z,101795.72
2022-12-18T21:19:30.393Z,101796.59
2022-12-18T21:22:00.142Z,101783.06
2022-12-18T21:24:32.010Z,101779.56
2022-12-18T21:27:03.610Z,101782.22
2022-12-18T21:29:31.458Z,101786.59
2022-12-18T21:31:59.244Z,101781.63
2022-12-18T21:34:28.562Z,101772.28
2022-12-18T21:36:57.719Z,101778.44
2022-12-18T21:39:27.899Z,101775.94
2022-12-18T21:42:13.451Z,101786.34
2022-12-18T21:44:42.598Z,101776.66
2022-12-18T21:47:21.505Z,101786.13
2022-12-18T21:49:51.835Z,101784.66
2022-12-18T21:52:20.342Z,101788.09
2022-12-18T21:54:53.692Z,101782.25
2022-12-18T21:57:21.372Z,101777.84
2022-12-18T21:59:50.458Z,101770.16
2022-12-18T22:02:21.164Z,101772.88
2022-12-18T22:04:49.322Z,101761.81
2022-12-18T22:07:17.868Z,101763.56
2022-12-18T22:09:46.058Z,101748.19
2022-12-18T22:12:35.026Z,101729.63
2022-12-18T22:15:04.979Z,101730.41
2022-12-18T22:17:33.263Z,101737.16
2022-12-18T22:20:00.959Z,101730.50
2022-12-18T22:22:28.942Z,101724.41
2022-12-18T22:24:56.883Z,101720.25
2022-12-18T22:27:26.014Z,101722.13
2022-12-18T22:30:04.854Z,101716.16
2022-12-18T22:32:33.768Z,101710.28
2022-12-18T22:35:07.215Z,101713.75
2022-12-18T22:37:37.176Z,101718.13
2022-12-18T22:40:06.252Z,101705.47
2022-12-18T22:42:36.965Z,101716.59
2022-12-18T22:45:05.323Z,101698.84
2022-12-18T22:47:33.063Z,101692.84
2022-12-18T22:50:00.781Z,101686.84
2022-12-18T22:52:28.500Z,101686.13
2022-12-18T22:54:56.387Z,101681.16
2022-12-18T22:57:25.277Z,101680.41
2022-12-18T22:59:54.315Z,101677.88
2022-12-18T23:02:22.241Z,101684.00
2022-12-18T23:04:50.118Z,101684.00
2022-12-18T23:07:18.683Z,101677.09
2022-12-18T23:09:46.828Z,101678.13
2022-12-18T23:12:19.756Z,101685.97
2022-12-18T23:14:47.846Z,101677.38
2022-12-18T23:17:17.025Z,101663.75
2022-12-18T23:19:49.016Z,101657.75
2022-12-18T23:22:17.459Z,101649.47
2022-12-18T23:24:45.432Z,101650.44
2022-12-18T23:27:13.290Z,101646.16
2022-12-18T23:29:41.585Z,101658.41
2022-12-18T23:32:09.558Z,101649.88
2022-12-18T23:34:38.578Z,101637.28
2022-12-18T23:37:06.268Z,101643.41
2022-12-18T23:39:36.923Z,101644.28
2022-12-18T23:42:04.828Z,101647.00
2022-12-18T23:44:32.490Z,101632.59
2022-12-18T23:47:00.242Z,101619.91
2022-12-18T23:49:28.450Z,101625.19
2022-12-18T23:51:57.559Z,101614.06
2022-12-18T23:54:33.451Z,101605.75
2022-12-18T23:57:02.069Z,101609.25
2022-12-18T23:59:29.761Z,101610.22
